sensor_id;sensor_type;location;lat;lon;timestamp;temperature;humidity
44063;DHT22;29727;47.606;19.130;2023-02-14T00:00:55;4.50;68.10
44063;DHT22;29727;47.606;19.130;2023-02-14T00:03:21;4.40;68.00
44063;DHT22;29727;47.606;19.130;2023-02-14T00:05:46;4.40;68.60
44063;DHT22;29727;47.606;19.130;2023-02-14T00:08:12;4.30;68.80
44063;DHT22;29727;47.606;19.130;2023-02-14T00:10:38;4.30;69.10
44063;DHT22;29727;47.606;19.130;2023-02-14T00:13:04;4.20;69.10
44063;DHT22;29727;47.606;19.130;2023-02-14T00:15:29;4.20;69.30
44063;DHT22;29727;47.606;19.130;2023-02-14T00:17:56;4.10;69.30
44063;DHT22;29727;47.606;19.130;2023-02-14T00:20:25;4.10;69.20
44063;DHT22;29727;47.606;19.130;2023-02-14T00:22:52;4.00;69.40
44063;DHT22;29727;47.606;19.130;2023-02-14T00:25:18;4.00;69.70
44063;DHT22;29727;47.606;19.130;2023-02-14T00:27:44;4.00;69.80
44063;DHT22;29727;47.606;19.130;2023-02-14T00:30:11;4.00;69.90
44063;DHT22;29727;47.606;19.130;2023-02-14T00:32:38;3.90;69.90
44063;DHT22;29727;47.606;19.130;2023-02-14T00:35:05;3.80;69.90
44063;DHT22;29727;47.606;19.130;2023-02-14T00:37:31;3.80;70.00
44063;DHT22;29727;47.606;19.130;2023-02-14T00:39:57;3.80;70.10
44063;DHT22;29727;47.606;19.130;2023-02-14T00:42:22;3.80;70.10
44063;DHT22;29727;47.606;19.130;2023-02-14T00:44:48;3.80;70.30
44063;DHT22;29727;47.606;19.130;2023-02-14T00:47:14;3.70;70.40
44063;DHT22;29727;47.606;19.130;2023-02-14T00:49:39;3.70;70.50
44063;DHT22;29727;47.606;19.130;2023-02-14T00:52:05;3.70;70.80
44063;DHT22;29727;47.606;19.130;2023-02-14T00:54:31;3.70;70.40
44063;DHT22;29727;47.606;19.130;2023-02-14T00:56:57;3.60;70.90
44063;DHT22;29727;47.606;19.130;2023-02-14T00:59:22;3.60;71.00
44063;DHT22;29727;47.606;19.130;2023-02-14T01:01:48;3.60;70.90
44063;DHT22;29727;47.606;19.130;2023-02-14T01:04:14;3.60;71.00
44063;DHT22;29727;47.606;19.130;2023-02-14T01:06:40;3.60;71.00
44063;DHT22;29727;47.606;19.130;2023-02-14T01:09:05;3.60;70.90
44063;DHT22;29727;47.606;19.130;2023-02-14T01:11:31;3.60;70.90
44063;DHT22;29727;47.606;19.130;2023-02-14T01:13:58;3.60;70.90
44063;DHT22;29727;47.606;19.130;2023-02-14T01:16:25;3.50;70.80
44063;DHT22;29727;47.606;19.130;2023-02-14T01:18:52;3.50;70.90
44063;DHT22;29727;47.606;19.130;2023-02-14T01:21:23;3.50;70.80
44063;DHT22;29727;47.606;19.130;2023-02-14T01:23:52;3.50;70.80
44063;DHT22;29727;47.606;19.130;2023-02-14T01:26:19;3.40;70.80
44063;DHT22;29727;47.606;19.130;2023-02-14T01:28:45;3.40;70.80
44063;DHT22;29727;47.606;19.130;2023-02-14T01:31:24;3.40;70.90
44063;DHT22;29727;47.606;19.130;2023-02-14T01:33:49;3.40;71.00
44063;DHT22;29727;47.606;19.130;2023-02-14T01:38:44;3.30;70.90
44063;DHT22;29727;47.606;19.130;2023-02-14T01:41:10;3.30;70.90
44063;DHT22;29727;47.606;19.130;2023-02-14T01:46:39;3.30;71.10
44063;DHT22;29727;47.606;19.130;2023-02-14T01:49:18;3.20;70.80
44063;DHT22;29727;47.606;19.130;2023-02-14T01:51:57;3.20;71.30
44063;DHT22;29727;47.606;19.130;2023-02-14T01:54:26;3.20;71.00
44063;DHT22;29727;47.606;19.130;2023-02-14T01:56:59;3.20;71.50
44063;DHT22;29727;47.606;19.130;2023-02-14T01:59:29;3.20;71.60
44063;DHT22;29727;47.606;19.130;2023-02-14T02:01:56;3.20;71.70
44063;DHT22;29727;47.606;19.130;2023-02-14T02:04:25;3.10;71.70
44063;DHT22;29727;47.606;19.130;2023-02-14T02:06:59;3.10;71.30
44063;DHT22;29727;47.606;19.130;2023-02-14T02:09:57;3.10;71.80
44063;DHT22;29727;47.606;19.130;2023-02-14T02:12:24;3.10;71.60
44063;DHT22;29727;47.606;19.130;2023-02-14T02:14:51;3.10;71.70
44063;DHT22;29727;47.606;19.130;2023-02-14T02:18:41;3.10;71.80
44063;DHT22;29727;47.606;19.130;2023-02-14T02:31:47;3.00;71.40
44063;DHT22;29727;47.606;19.130;2023-02-14T02:48:06;2.80;71.10
44063;DHT22;29727;47.606;19.130;2023-02-14T02:50:40;2.80;71.10
44063;DHT22;29727;47.606;19.130;2023-02-14T02:56:10;2.70;70.60
44063;DHT22;29727;47.606;19.130;2023-02-14T02:59:34;2.70;71.10
44063;DHT22;29727;47.606;19.130;2023-02-14T03:02:09;2.70;71.00
44063;DHT22;29727;47.606;19.130;2023-02-14T03:04:38;2.70;71.00
44063;DHT22;29727;47.606;19.130;2023-02-14T03:07:19;2.60;71.00
44063;DHT22;29727;47.606;19.130;2023-02-14T03:20:56;2.60;70.20
44063;DHT22;29727;47.606;19.130;2023-02-14T03:23:32;2.50;70.60
44063;DHT22;29727;47.606;19.130;2023-02-14T03:34:31;2.40;70.90
44063;DHT22;29727;47.606;19.130;2023-02-14T03:37:09;2.40;71.00
44063;DHT22;29727;47.606;19.130;2023-02-14T03:39:53;2.40;71.10
44063;DHT22;29727;47.606;19.130;2023-02-14T03:42:25;2.40;71.00
44063;DHT22;29727;47.606;19.130;2023-02-14T03:44:53;2.40;70.90
44063;DHT22;29727;47.606;19.130;2023-02-14T03:47:23;2.30;70.80
44063;DHT22;29727;47.606;19.130;2023-02-14T03:50:14;2.40;70.70
44063;DHT22;29727;47.606;19.130;2023-02-14T03:52:41;2.30;70.40
44063;DHT22;29727;47.606;19.130;2023-02-14T03:55:08;2.30;70.40
44063;DHT22;29727;47.606;19.130;2023-02-14T03:57:54;2.30;70.60
44063;DHT22;29727;47.606;19.130;2023-02-14T04:00:23;2.20;70.70
44063;DHT22;29727;47.606;19.130;2023-02-14T04:02:53;2.20;70.80
44063;DHT22;29727;47.606;19.130;2023-02-14T04:05:26;2.20;71.00
44063;DHT22;29727;47.606;19.130;2023-02-14T04:07:55;2.20;71.00
44063;DHT22;29727;47.606;19.130;2023-02-14T04:10:22;2.10;71.00
44063;DHT22;29727;47.606;19.130;2023-02-14T04:12:49;2.10;70.90
44063;DHT22;29727;47.606;19.130;2023-02-14T04:15:15;2.10;71.00
44063;DHT22;29727;47.606;19.130;2023-02-14T04:17:40;2.10;71.10
44063;DHT22;29727;47.606;19.130;2023-02-14T04:20:25;2.10;71.10
44063;DHT22;29727;47.606;19.130;2023-02-14T04:22:51;2.00;71.10
44063;DHT22;29727;47.606;19.130;2023-02-14T04:25:18;2.00;71.10
44063;DHT22;29727;47.606;19.130;2023-02-14T04:27:43;2.00;70.90
44063;DHT22;29727;47.606;19.130;2023-02-14T04:30:10;2.00;70.90
44063;DHT22;29727;47.606;19.130;2023-02-14T04:32:37;2.00;70.80
44063;DHT22;29727;47.606;19.130;2023-02-14T04:35:03;2.00;70.30
44063;DHT22;29727;47.606;19.130;2023-02-14T04:37:29;1.90;70.20
44063;DHT22;29727;47.606;19.130;2023-02-14T04:39:54;2.00;70.70
44063;DHT22;29727;47.606;19.130;2023-02-14T04:42:20;1.90;70.70
44063;DHT22;29727;47.606;19.130;2023-02-14T04:44:46;1.90;70.70
44063;DHT22;29727;47.606;19.130;2023-02-14T04:47:11;1.90;70.80
44063;DHT22;29727;47.606;19.130;2023-02-14T04:49:37;1.90;71.00
44063;DHT22;29727;47.606;19.130;2023-02-14T04:52:03;1.90;70.40
44063;DHT22;29727;47.606;19.130;2023-02-14T04:54:30;1.90;70.90
44063;DHT22;29727;47.606;19.130;2023-02-14T04:56:56;1.90;70.80
44063;DHT22;29727;47.606;19.130;2023-02-14T04:59:22;1.90;70.60
44063;DHT22;29727;47.606;19.130;2023-02-14T05:01:48;1.80;70.60
44063;DHT22;29727;47.606;19.130;2023-02-14T05:04:13;1.80;70.60
44063;DHT22;29727;47.606;19.130;2023-02-14T05:06:39;1.80;70.70
44063;DHT22;29727;47.606;19.130;2023-02-14T05:09:05;1.80;70.70
44063;DHT22;29727;47.606;19.130;2023-02-14T05:11:31;1.80;70.70
44063;DHT22;29727;47.606;19.130;2023-02-14T05:13:57;1.80;70.80
44063;DHT22;29727;47.606;19.130;2023-02-14T05:16:22;1.70;70.30
44063;DHT22;29727;47.606;19.130;2023-02-14T05:18:48;1.70;70.70
44063;DHT22;29727;47.606;19.130;2023-02-14T05:21:14;1.70;70.70
44063;DHT22;29727;47.606;19.130;2023-02-14T05:23:39;1.70;70.70
44063;DHT22;29727;47.606;19.130;2023-02-14T05:26:05;1.60;70.80
44063;DHT22;29727;47.606;19.130;2023-02-14T05:28:31;1.60;70.80
44063;DHT22;29727;47.606;19.130;2023-02-14T05:30:57;1.70;71.00
44063;DHT22;29727;47.606;19.130;2023-02-14T05:33:23;1.60;71.00
44063;DHT22;29727;47.606;19.130;2023-02-14T05:35:49;1.60;70.80
44063;DHT22;29727;47.606;19.130;2023-02-14T05:38:15;1.60;70.70
44063;DHT22;29727;47.606;19.130;2023-02-14T05:40:42;1.60;70.70
44063;DHT22;29727;47.606;19.130;2023-02-14T05:43:08;1.60;70.60
44063;DHT22;29727;47.606;19.130;2023-02-14T05:45:33;1.60;70.70
44063;DHT22;29727;47.606;19.130;2023-02-14T05:47:59;1.60;70.70
44063;DHT22;29727;47.606;19.130;2023-02-14T05:50:25;1.60;70.90
44063;DHT22;29727;47.606;19.130;2023-02-14T05:52:50;1.50;71.00
44063;DHT22;29727;47.606;19.130;2023-02-14T05:55:16;1.50;71.10
44063;DHT22;29727;47.606;19.130;2023-02-14T05:57:42;1.50;71.20
44063;DHT22;29727;47.606;19.130;2023-02-14T06:00:08;1.50;71.20
44063;DHT22;29727;47.606;19.130;2023-02-14T06:02:34;1.40;70.60
44063;DHT22;29727;47.606;19.130;2023-02-14T06:05:00;1.40;71.10
44063;DHT22;29727;47.606;19.130;2023-02-14T06:07:25;1.40;71.10
44063;DHT22;29727;47.606;19.130;2023-02-14T06:09:51;1.40;71.20
44063;DHT22;29727;47.606;19.130;2023-02-14T06:12:16;1.40;71.20
44063;DHT22;29727;47.606;19.130;2023-02-14T06:14:42;1.40;71.20
44063;DHT22;29727;47.606;19.130;2023-02-14T06:17:09;1.40;71.30
44063;DHT22;29727;47.606;19.130;2023-02-14T06:19:35;1.40;71.40
44063;DHT22;29727;47.606;19.130;2023-02-14T06:22:01;1.40;71.40
44063;DHT22;29727;47.606;19.130;2023-02-14T06:24:27;1.40;71.50
44063;DHT22;29727;47.606;19.130;2023-02-14T06:26:52;1.40;71.60
44063;DHT22;29727;47.606;19.130;2023-02-14T06:29:18;1.40;71.80
44063;DHT22;29727;47.606;19.130;2023-02-14T06:31:44;1.40;71.90
44063;DHT22;29727;47.606;19.130;2023-02-14T06:34:10;1.40;71.90
44063;DHT22;29727;47.606;19.130;2023-02-14T06:36:36;1.40;72.00
44063;DHT22;29727;47.606;19.130;2023-02-14T06:39:02;1.40;72.10
44063;DHT22;29727;47.606;19.130;2023-02-14T06:41:28;1.40;72.20
44063;DHT22;29727;47.606;19.130;2023-02-14T06:43:54;1.40;72.40
44063;DHT22;29727;47.606;19.130;2023-02-14T06:46:20;1.40;72.50
44063;DHT22;29727;47.606;19.130;2023-02-14T06:48:46;1.40;72.60
44063;DHT22;29727;47.606;19.130;2023-02-14T06:51:12;1.50;72.90
44063;DHT22;29727;47.606;19.130;2023-02-14T06:53:38;1.50;72.70
44063;DHT22;29727;47.606;19.130;2023-02-14T06:56:04;1.50;73.30
44063;DHT22;29727;47.606;19.130;2023-02-14T06:58:30;1.60;73.40
44063;DHT22;29727;47.606;19.130;2023-02-14T07:00:56;1.70;73.60
44063;DHT22;29727;47.606;19.130;2023-02-14T07:03:23;1.70;73.50
44063;DHT22;29727;47.606;19.130;2023-02-14T07:05:49;1.70;73.60
44063;DHT22;29727;47.606;19.130;2023-02-14T07:08:14;1.80;73.90
44063;DHT22;29727;47.606;19.130;2023-02-14T07:10:40;1.80;74.00
44063;DHT22;29727;47.606;19.130;2023-02-14T07:13:06;1.90;74.30
44063;DHT22;29727;47.606;19.130;2023-02-14T07:15:31;1.90;74.40
44063;DHT22;29727;47.606;19.130;2023-02-14T07:17:57;2.00;74.50
44063;DHT22;29727;47.606;19.130;2023-02-14T07:20:23;2.00;74.50
44063;DHT22;29727;47.606;19.130;2023-02-14T07:22:49;2.10;74.80
44063;DHT22;29727;47.606;19.130;2023-02-14T07:25:15;2.20;74.80
44063;DHT22;29727;47.606;19.130;2023-02-14T07:27:40;2.20;74.90
44063;DHT22;29727;47.606;19.130;2023-02-14T07:30:08;2.30;75.30
44063;DHT22;29727;47.606;19.130;2023-02-14T07:32:39;2.40;75.70
44063;DHT22;29727;47.606;19.130;2023-02-14T07:35:05;2.50;76.00
44063;DHT22;29727;47.606;19.130;2023-02-14T07:37:32;2.50;76.50
44063;DHT22;29727;47.606;19.130;2023-02-14T07:39:58;2.60;76.70
44063;DHT22;29727;47.606;19.130;2023-02-14T07:42:23;2.70;76.70
44063;DHT22;29727;47.606;19.130;2023-02-14T07:44:49;2.80;77.00
44063;DHT22;29727;47.606;19.130;2023-02-14T07:47:15;2.90;77.40
44063;DHT22;29727;47.606;19.130;2023-02-14T07:49:40;3.00;78.10
44063;DHT22;29727;47.606;19.130;2023-02-14T07:52:06;3.10;78.70
44063;DHT22;29727;47.606;19.130;2023-02-14T07:54:32;3.20;78.90
44063;DHT22;29727;47.606;19.130;2023-02-14T07:56:57;3.20;79.50
44063;DHT22;29727;47.606;19.130;2023-02-14T07:59:23;3.40;79.30
44063;DHT22;29727;47.606;19.130;2023-02-14T08:01:49;3.40;79.80
44063;DHT22;29727;47.606;19.130;2023-02-14T08:04:14;3.50;79.50
44063;DHT22;29727;47.606;19.130;2023-02-14T08:06:41;3.60;79.60
44063;DHT22;29727;47.606;19.130;2023-02-14T08:09:07;3.70;79.50
44063;DHT22;29727;47.606;19.130;2023-02-14T08:11:35;3.80;79.60
44063;DHT22;29727;47.606;19.130;2023-02-14T08:14:19;3.90;79.90
44063;DHT22;29727;47.606;19.130;2023-02-14T08:16:45;4.00;79.70
44063;DHT22;29727;47.606;19.130;2023-02-14T08:19:10;4.00;79.60
44063;DHT22;29727;47.606;19.130;2023-02-14T08:21:36;4.10;79.20
44063;DHT22;29727;47.606;19.130;2023-02-14T08:24:02;4.20;78.90
44063;DHT22;29727;47.606;19.130;2023-02-14T08:26:27;4.30;79.10
44063;DHT22;29727;47.606;19.130;2023-02-14T08:28:53;4.30;79.30
44063;DHT22;29727;47.606;19.130;2023-02-14T08:31:29;4.40;79.70
44063;DHT22;29727;47.606;19.130;2023-02-14T08:33:55;4.50;79.00
44063;DHT22;29727;47.606;19.130;2023-02-14T08:36:21;4.60;79.00
44063;DHT22;29727;47.606;19.130;2023-02-14T08:38:48;4.70;78.40
44063;DHT22;29727;47.606;19.130;2023-02-14T08:41:17;4.80;78.00
44063;DHT22;29727;47.606;19.130;2023-02-14T08:43:44;4.90;77.70
44063;DHT22;29727;47.606;19.130;2023-02-14T08:46:10;5.00;77.60
44063;DHT22;29727;47.606;19.130;2023-02-14T08:48:41;5.10;77.10
44063;DHT22;29727;47.606;19.130;2023-02-14T08:51:09;5.20;76.70
44063;DHT22;29727;47.606;19.130;2023-02-14T08:53:35;5.30;75.90
44063;DHT22;29727;47.606;19.130;2023-02-14T08:56:06;5.40;76.60
44063;DHT22;29727;47.606;19.130;2023-02-14T08:58:32;5.50;76.10
44063;DHT22;29727;47.606;19.130;2023-02-14T09:01:00;5.60;76.00
44063;DHT22;29727;47.606;19.130;2023-02-14T09:03:26;5.70;76.10
44063;DHT22;29727;47.606;19.130;2023-02-14T09:05:52;5.80;75.80
44063;DHT22;29727;47.606;19.130;2023-02-14T09:08:17;5.90;75.30
44063;DHT22;29727;47.606;19.130;2023-02-14T09:10:43;6.00;75.40
44063;DHT22;29727;47.606;19.130;2023-02-14T09:13:09;6.20;75.30
44063;DHT22;29727;47.606;19.130;2023-02-14T09:15:34;6.20;75.00
44063;DHT22;29727;47.606;19.130;2023-02-14T09:18:00;6.40;74.70
44063;DHT22;29727;47.606;19.130;2023-02-14T09:20:26;6.50;73.80
44063;DHT22;29727;47.606;19.130;2023-02-14T09:22:54;6.60;73.10
44063;DHT22;29727;47.606;19.130;2023-02-14T09:25:20;6.70;72.80
44063;DHT22;29727;47.606;19.130;2023-02-14T09:27:45;6.70;72.50
44063;DHT22;29727;47.606;19.130;2023-02-14T09:30:12;6.80;72.20
44063;DHT22;29727;47.606;19.130;2023-02-14T09:32:37;6.90;72.60
44063;DHT22;29727;47.606;19.130;2023-02-14T09:35:04;7.00;72.00
44063;DHT22;29727;47.606;19.130;2023-02-14T09:37:29;7.10;72.00
44063;DHT22;29727;47.606;19.130;2023-02-14T09:40:17;7.20;71.30
44063;DHT22;29727;47.606;19.130;2023-02-14T09:45:24;7.40;69.90
44063;DHT22;29727;47.606;19.130;2023-02-14T09:53:27;7.90;67.40
44063;DHT22;29727;47.606;19.130;2023-02-14T09:55:56;7.90;67.40
44063;DHT22;29727;47.606;19.130;2023-02-14T10:01:16;8.10;66.50
44063;DHT22;29727;47.606;19.130;2023-02-14T10:11:53;8.50;64.90
44063;DHT22;29727;47.606;19.130;2023-02-14T10:14:30;8.50;64.10
44063;DHT22;29727;47.606;19.130;2023-02-14T10:17:03;8.60;64.30
44063;DHT22;29727;47.606;19.130;2023-02-14T10:19:38;8.60;64.70
44063;DHT22;29727;47.606;19.130;2023-02-14T10:22:13;8.70;63.70
44063;DHT22;29727;47.606;19.130;2023-02-14T10:24:44;8.80;63.60
44063;DHT22;29727;47.606;19.130;2023-02-14T10:27:28;8.80;63.20
44063;DHT22;29727;47.606;19.130;2023-02-14T10:29:55;8.90;63.30
44063;DHT22;29727;47.606;19.130;2023-02-14T10:32:34;9.00;62.10
44063;DHT22;29727;47.606;19.130;2023-02-14T10:35:10;9.00;61.30
44063;DHT22;29727;47.606;19.130;2023-02-14T10:48:51;9.30;60.60
44063;DHT22;29727;47.606;19.130;2023-02-14T10:51:38;9.30;60.40
44063;DHT22;29727;47.606;19.130;2023-02-14T10:54:25;9.40;60.50
44063;DHT22;29727;47.606;19.130;2023-02-14T10:56:57;9.50;60.90
44063;DHT22;29727;47.606;19.130;2023-02-14T10:59:40;9.60;59.70
44063;DHT22;29727;47.606;19.130;2023-02-14T11:02:12;9.70;59.90
44063;DHT22;29727;47.606;19.130;2023-02-14T11:04:39;9.80;59.60
44063;DHT22;29727;47.606;19.130;2023-02-14T11:07:15;9.80;58.90
44063;DHT22;29727;47.606;19.130;2023-02-14T11:09:41;9.90;59.20
44063;DHT22;29727;47.606;19.130;2023-02-14T11:12:07;9.90;58.50
44063;DHT22;29727;47.606;19.130;2023-02-14T11:14:35;10.00;57.80
44063;DHT22;29727;47.606;19.130;2023-02-14T11:17:27;10.10;57.40
44063;DHT22;29727;47.606;19.130;2023-02-14T11:20:01;10.20;57.70
44063;DHT22;29727;47.606;19.130;2023-02-14T11:22:32;10.20;57.40
44063;DHT22;29727;47.606;19.130;2023-02-14T11:25:17;10.30;57.60
44063;DHT22;29727;47.606;19.130;2023-02-14T11:27:45;10.40;57.30
44063;DHT22;29727;47.606;19.130;2023-02-14T11:30:33;10.40;56.60
44063;DHT22;29727;47.606;19.130;2023-02-14T11:33:00;10.50;57.30
44063;DHT22;29727;47.606;19.130;2023-02-14T11:35:28;10.50;57.50
44063;DHT22;29727;47.606;19.130;2023-02-14T11:38:00;10.60;57.50
44063;DHT22;29727;47.606;19.130;2023-02-14T11:40:34;10.70;56.20
44063;DHT22;29727;47.606;19.130;2023-02-14T11:43:54;10.80;56.50
44063;DHT22;29727;47.606;19.130;2023-02-14T11:48:59;11.00;55.70
44063;DHT22;29727;47.606;19.130;2023-02-14T11:53:57;11.10;55.20
44063;DHT22;29727;47.606;19.130;2023-02-14T11:56:51;11.20;56.10
44063;DHT22;29727;47.606;19.130;2023-02-14T11:59:31;11.30;56.30
44063;DHT22;29727;47.606;19.130;2023-02-14T12:02:00;11.40;55.60
44063;DHT22;29727;47.606;19.130;2023-02-14T12:04:33;11.50;54.10
44063;DHT22;29727;47.606;19.130;2023-02-14T12:07:35;11.50;54.70
44063;DHT22;29727;47.606;19.130;2023-02-14T12:10:15;11.60;55.20
44063;DHT22;29727;47.606;19.130;2023-02-14T12:15:32;11.70;54.50
44063;DHT22;29727;47.606;19.130;2023-02-14T12:23:44;11.90;53.60
44063;DHT22;29727;47.606;19.130;2023-02-14T12:26:28;11.90;52.80
44063;DHT22;29727;47.606;19.130;2023-02-14T12:29:11;12.00;52.50
44063;DHT22;29727;47.606;19.130;2023-02-14T12:31:39;12.10;53.30
44063;DHT22;29727;47.606;19.130;2023-02-14T12:34:05;12.20;52.60
44063;DHT22;29727;47.606;19.130;2023-02-14T12:43:11;12.50;51.40
44063;DHT22;29727;47.606;19.130;2023-02-14T12:46:20;12.60;51.20
44063;DHT22;29727;47.606;19.130;2023-02-14T12:49:16;12.70;51.10
44063;DHT22;29727;47.606;19.130;2023-02-14T13:00:27;13.00;51.10
44063;DHT22;29727;47.606;19.130;2023-02-14T13:06:19;13.20;49.90
44063;DHT22;29727;47.606;19.130;2023-02-14T13:14:37;13.40;48.80
44063;DHT22;29727;47.606;19.130;2023-02-14T13:22:41;13.60;48.70
44063;DHT22;29727;47.606;19.130;2023-02-14T13:25:26;13.60;48.00
44063;DHT22;29727;47.606;19.130;2023-02-14T13:28:05;13.60;48.90
44063;DHT22;29727;47.606;19.130;2023-02-14T13:30:35;13.60;49.00
44063;DHT22;29727;47.606;19.130;2023-02-14T13:33:53;13.60;49.00
44063;DHT22;29727;47.606;19.130;2023-02-14T13:35:57;13.70;48.60
44063;DHT22;29727;47.606;19.130;2023-02-14T13:38:24;13.70;47.90
44063;DHT22;29727;47.606;19.130;2023-02-14T13:40:53;13.70;48.40
44063;DHT22;29727;47.606;19.130;2023-02-14T13:49:04;13.50;48.40
44063;DHT22;29727;47.606;19.130;2023-02-14T13:56:54;13.40;49.00
44063;DHT22;29727;47.606;19.130;2023-02-14T13:59:38;13.40;48.80
44063;DHT22;29727;47.606;19.130;2023-02-14T14:04:52;13.40;49.60
44063;DHT22;29727;47.606;19.130;2023-02-14T14:07:23;13.40;49.10
44063;DHT22;29727;47.606;19.130;2023-02-14T14:09:54;13.40;49.10
44063;DHT22;29727;47.606;19.130;2023-02-14T14:15:13;13.60;49.50
44063;DHT22;29727;47.606;19.130;2023-02-14T14:20:44;13.80;48.60
44063;DHT22;29727;47.606;19.130;2023-02-14T14:23:33;13.80;48.40
44063;DHT22;29727;47.606;19.130;2023-02-14T14:26:00;13.70;48.20
44063;DHT22;29727;47.606;19.130;2023-02-14T14:28:30;13.70;48.20
44063;DHT22;29727;47.606;19.130;2023-02-14T14:30:56;13.70;48.80
44063;DHT22;29727;47.606;19.130;2023-02-14T14:33:29;13.70;48.40
44063;DHT22;29727;47.606;19.130;2023-02-14T14:36:04;13.70;48.40
44063;DHT22;29727;47.606;19.130;2023-02-14T14:38:32;13.70;48.40
44063;DHT22;29727;47.606;19.130;2023-02-14T14:40:59;13.80;48.20
44063;DHT22;29727;47.606;19.130;2023-02-14T14:43:33;13.80;48.90
44063;DHT22;29727;47.606;19.130;2023-02-14T14:46:02;13.90;48.30
44063;DHT22;29727;47.606;19.130;2023-02-14T14:48:38;13.90;48.10
44063;DHT22;29727;47.606;19.130;2023-02-14T14:54:00;13.70;48.20
44063;DHT22;29727;47.606;19.130;2023-02-14T14:56:36;13.60;48.70
44063;DHT22;29727;47.606;19.130;2023-02-14T15:01:48;13.40;49.70
44063;DHT22;29727;47.606;19.130;2023-02-14T15:04:30;13.30;49.80
44063;DHT22;29727;47.606;19.130;2023-02-14T15:07:15;13.30;49.70
44063;DHT22;29727;47.606;19.130;2023-02-14T15:09:41;13.30;49.70
44063;DHT22;29727;47.606;19.130;2023-02-14T15:12:08;13.30;49.60
44063;DHT22;29727;47.606;19.130;2023-02-14T15:14:53;13.30;49.80
44063;DHT22;29727;47.606;19.130;2023-02-14T15:17:24;13.30;49.80
44063;DHT22;29727;47.606;19.130;2023-02-14T15:20:15;13.30;49.80
44063;DHT22;29727;47.606;19.130;2023-02-14T15:25:21;13.30;50.00
44063;DHT22;29727;47.606;19.130;2023-02-14T15:27:48;13.30;50.00
44063;DHT22;29727;47.606;19.130;2023-02-14T15:32:44;13.20;50.20
44063;DHT22;29727;47.606;19.130;2023-02-14T15:35:11;13.20;50.70
44063;DHT22;29727;47.606;19.130;2023-02-14T15:37:38;13.10;50.90
44063;DHT22;29727;47.606;19.130;2023-02-14T15:40:05;13.10;51.20
44063;DHT22;29727;47.606;19.130;2023-02-14T15:42:39;13.00;51.30
44063;DHT22;29727;47.606;19.130;2023-02-14T15:48:03;12.90;51.40
44063;DHT22;29727;47.606;19.130;2023-02-14T15:50:34;12.70;51.70
44063;DHT22;29727;47.606;19.130;2023-02-14T15:53:39;12.60;51.40
44063;DHT22;29727;47.606;19.130;2023-02-14T15:58:38;12.40;52.40
44063;DHT22;29727;47.606;19.130;2023-02-14T16:01:06;12.30;52.40
44063;DHT22;29727;47.606;19.130;2023-02-14T16:03:34;12.20;52.70
44063;DHT22;29727;47.606;19.130;2023-02-14T16:06:03;12.10;52.90
44063;DHT22;29727;47.606;19.130;2023-02-14T16:11:13;11.80;53.40
44063;DHT22;29727;47.606;19.130;2023-02-14T16:13:43;11.70;53.80
44063;DHT22;29727;47.606;19.130;2023-02-14T16:16:11;11.50;53.90
44063;DHT22;29727;47.606;19.130;2023-02-14T16:21:28;11.30;54.80
44063;DHT22;29727;47.606;19.130;2023-02-14T16:26:39;10.90;54.70
44063;DHT22;29727;47.606;19.130;2023-02-14T16:29:11;10.90;55.30
44063;DHT22;29727;47.606;19.130;2023-02-14T16:31:42;10.90;55.50
44063;DHT22;29727;47.606;19.130;2023-02-14T16:34:12;10.70;55.60
44063;DHT22;29727;47.606;19.130;2023-02-14T16:36:39;10.60;55.80
44063;DHT22;29727;47.606;19.130;2023-02-14T16:39:05;10.50;56.00
44063;DHT22;29727;47.606;19.130;2023-02-14T16:41:35;10.50;56.10
44063;DHT22;29727;47.606;19.130;2023-02-14T16:44:01;10.30;56.10
44063;DHT22;29727;47.606;19.130;2023-02-14T16:46:31;10.30;56.50
44063;DHT22;29727;47.606;19.130;2023-02-14T16:48:57;10.20;56.60
44063;DHT22;29727;47.606;19.130;2023-02-14T16:51:26;10.10;56.60
44063;DHT22;29727;47.606;19.130;2023-02-14T16:53:53;10.00;56.40
44063;DHT22;29727;47.606;19.130;2023-02-14T16:59:05;9.80;57.20
44063;DHT22;29727;47.606;19.130;2023-02-14T17:01:31;9.70;57.10
44063;DHT22;29727;47.606;19.130;2023-02-14T17:03:57;9.70;57.20
44063;DHT22;29727;47.606;19.130;2023-02-14T17:06:25;9.60;57.40
44063;DHT22;29727;47.606;19.130;2023-02-14T17:08:55;9.50;58.00
44063;DHT22;29727;47.606;19.130;2023-02-14T17:11:23;9.40;57.80
44063;DHT22;29727;47.606;19.130;2023-02-14T17:13:50;9.30;58.00
44063;DHT22;29727;47.606;19.130;2023-02-14T17:16:16;9.30;58.30
44063;DHT22;29727;47.606;19.130;2023-02-14T17:18:47;9.10;58.30
44063;DHT22;29727;47.606;19.130;2023-02-14T17:21:15;9.10;58.50
44063;DHT22;29727;47.606;19.130;2023-02-14T17:23:41;9.00;58.70
44063;DHT22;29727;47.606;19.130;2023-02-14T17:26:07;8.90;59.00
44063;DHT22;29727;47.606;19.130;2023-02-14T17:28:32;8.90;59.00
44063;DHT22;29727;47.606;19.130;2023-02-14T17:30:59;8.80;58.90
44063;DHT22;29727;47.606;19.130;2023-02-14T17:33:25;8.70;58.90
44063;DHT22;29727;47.606;19.130;2023-02-14T17:35:50;8.70;59.10
44063;DHT22;29727;47.606;19.130;2023-02-14T17:38:16;8.60;59.30
44063;DHT22;29727;47.606;19.130;2023-02-14T17:40:43;8.50;59.50
44063;DHT22;29727;47.606;19.130;2023-02-14T17:43:09;8.40;59.90
44063;DHT22;29727;47.606;19.130;2023-02-14T17:45:34;8.30;59.80
44063;DHT22;29727;47.606;19.130;2023-02-14T17:48:00;8.30;60.00
44063;DHT22;29727;47.606;19.130;2023-02-14T17:50:27;8.20;60.30
44063;DHT22;29727;47.606;19.130;2023-02-14T17:52:56;8.10;59.80
44063;DHT22;29727;47.606;19.130;2023-02-14T17:55:22;8.10;60.50
44063;DHT22;29727;47.606;19.130;2023-02-14T17:57:48;8.00;60.50
44063;DHT22;29727;47.606;19.130;2023-02-14T18:00:19;8.00;60.60
44063;DHT22;29727;47.606;19.130;2023-02-14T18:02:44;7.90;60.90
44063;DHT22;29727;47.606;19.130;2023-02-14T18:05:10;7.80;61.20
44063;DHT22;29727;47.606;19.130;2023-02-14T18:07:37;7.70;61.10
44063;DHT22;29727;47.606;19.130;2023-02-14T18:10:03;7.70;61.10
44063;DHT22;29727;47.606;19.130;2023-02-14T18:12:29;7.60;61.20
44063;DHT22;29727;47.606;19.130;2023-02-14T18:14:55;7.50;61.20
44063;DHT22;29727;47.606;19.130;2023-02-14T18:17:21;7.50;61.10
44063;DHT22;29727;47.606;19.130;2023-02-14T18:19:47;7.50;61.30
44063;DHT22;29727;47.606;19.130;2023-02-14T18:22:13;7.40;61.60
44063;DHT22;29727;47.606;19.130;2023-02-14T18:24:39;7.30;62.20
44063;DHT22;29727;47.606;19.130;2023-02-14T18:27:04;7.30;61.90
44063;DHT22;29727;47.606;19.130;2023-02-14T18:29:31;7.20;61.90
44063;DHT22;29727;47.606;19.130;2023-02-14T18:31:57;7.10;61.70
44063;DHT22;29727;47.606;19.130;2023-02-14T18:34:23;7.10;61.60
44063;DHT22;29727;47.606;19.130;2023-02-14T18:36:49;7.00;61.80